sensor_id;sensor_type;location;lat;lon;timestamp;P1;durP1;ratioP1;P2;durP2;ratioP2
75417;SDS011;63997;52.112;5.420;2023-07-31T00:00:58;1.30;;;0.50;;
75417;SDS011;63997;52.112;5.420;2023-07-31T00:03:25;1.40;;;0.82;;
75417;SDS011;63997;52.112;5.420;2023-07-31T00:05:51;1.17;;;0.60;;
75417;SDS011;63997;52.112;5.420;2023-07-31T00:08:17;1.33;;;0.57;;
75417;SDS011;63997;52.112;5.420;2023-07-31T00:10:44;2.70;;;0.60;;
75417;SDS011;63997;52.112;5.420;2023-07-31T00:13:11;2.35;;;0.63;;
75417;SDS011;63997;52.112;5.420;2023-07-31T00:15:38;1.27;;;0.60;;
75417;SDS011;63997;52.112;5.420;2023-07-31T00:18:04;3.50;;;0.47;;
75417;SDS011;63997;52.112;5.420;2023-07-31T00:20:31;1.23;;;0.57;;
75417;SDS011;63997;52.112;5.420;2023-07-31T00:22:57;2.42;;;0.68;;
75417;SDS011;63997;52.112;5.420;2023-07-31T00:25:24;1.65;;;0.90;;
75417;SDS011;63997;52.112;5.420;2023-07-31T00:27:50;2.33;;;1.08;;
75417;SDS011;63997;52.112;5.420;2023-07-31T00:30:16;3.57;;;1.40;;
75417;SDS011;63997;52.112;5.420;2023-07-31T00:32:43;2.17;;;1.42;;
75417;SDS011;63997;52.112;5.420;2023-07-31T00:35:09;4.78;;;2.00;;
75417;SDS011;63997;52.112;5.420;2023-07-31T00:37:36;13.15;;;1.90;;
75417;SDS011;63997;52.112;5.420;2023-07-31T00:40:02;7.28;;;2.58;;
75417;SDS011;63997;52.112;5.420;2023-07-31T00:42:29;7.17;;;2.30;;
75417;SDS011;63997;52.112;5.420;2023-07-31T00:44:56;11.55;;;2.83;;
75417;SDS011;63997;52.112;5.420;2023-07-31T00:47:22;14.27;;;4.03;;
75417;SDS011;63997;52.112;5.420;2023-07-31T00:49:49;18.35;;;3.40;;
75417;SDS011;63997;52.112;5.420;2023-07-31T00:52:15;21.45;;;4.30;;
75417;SDS011;63997;52.112;5.420;2023-07-31T00:54:42;21.13;;;4.07;;
75417;SDS011;63997;52.112;5.420;2023-07-31T00:57:09;17.35;;;4.38;;
75417;SDS011;63997;52.112;5.420;2023-07-31T00:59:36;18.05;;;4.45;;
75417;SDS011;63997;52.112;5.420;2023-07-31T01:02:02;11.38;;;3.58;;
75417;SDS011;63997;52.112;5.420;2023-07-31T01:04:29;25.02;;;4.85;;
75417;SDS011;63997;52.112;5.420;2023-07-31T01:07:01;22.37;;;4.00;;
75417;SDS011;63997;52.112;5.420;2023-07-31T01:09:40;26.00;;;4.22;;
75417;SDS011;63997;52.112;5.420;2023-07-31T01:12:12;23.92;;;4.30;;
75417;SDS011;63997;52.112;5.420;2023-07-31T01:14:50;14.50;;;4.47;;
75417;SDS011;63997;52.112;5.420;2023-07-31T01:17:17;19.05;;;4.55;;
75417;SDS011;63997;52.112;5.420;2023-07-31T01:19:44;20.77;;;4.97;;
75417;SDS011;63997;52.112;5.420;2023-07-31T01:28:10;21.55;;;4.47;;
75417;SDS011;63997;52.112;5.420;2023-07-31T01:30:37;21.80;;;4.45;;
75417;SDS011;63997;52.112;5.420;2023-07-31T01:33:10;19.30;;;3.77;;
75417;SDS011;63997;52.112;5.420;2023-07-31T01:35:37;21.05;;;4.80;;
75417;SDS011;63997;52.112;5.420;2023-07-31T01:38:07;16.40;;;4.22;;
75417;SDS011;63997;52.112;5.420;2023-07-31T01:40:33;18.42;;;4.55;;
75417;SDS011;63997;52.112;5.420;2023-07-31T01:42:59;13.25;;;4.22;;
75417;SDS011;63997;52.112;5.420;2023-07-31T01:45:26;19.17;;;4.80;;
75417;SDS011;63997;52.112;5.420;2023-07-31T01:47:52;18.00;;;4.80;;
75417;SDS011;63997;52.112;5.420;2023-07-31T01:50:19;16.80;;;4.15;;
75417;SDS011;63997;52.112;5.420;2023-07-31T01:52:45;18.63;;;4.05;;
75417;SDS011;63997;52.112;5.420;2023-07-31T01:55:12;15.45;;;4.00;;
75417;SDS011;63997;52.112;5.420;2023-07-31T01:57:38;17.93;;;3.93;;
75417;SDS011;63997;52.112;5.420;2023-07-31T02:00:05;12.57;;;3.95;;
75417;SDS011;63997;52.112;5.420;2023-07-31T02:02:31;19.48;;;4.78;;
75417;SDS011;63997;52.112;5.420;2023-07-31T02:04:58;15.63;;;4.53;;
75417;SDS011;63997;52.112;5.420;2023-07-31T02:07:24;16.40;;;4.28;;
75417;SDS011;63997;52.112;5.420;2023-07-31T02:09:51;12.73;;;3.93;;
75417;SDS011;63997;52.112;5.420;2023-07-31T02:12:17;11.73;;;3.58;;
75417;SDS011;63997;52.112;5.420;2023-07-31T02:14:44;12.23;;;4.28;;
75417;SDS011;63997;52.112;5.420;2023-07-31T02:17:11;10.77;;;3.40;;
75417;SDS011;63997;52.112;5.420;2023-07-31T02:19:37;8.77;;;2.97;;
75417;SDS011;63997;52.112;5.420;2023-07-31T02:22:04;14.00;;;3.90;;
75417;SDS011;63997;52.112;5.420;2023-07-31T02:24:30;8.25;;;3.25;;
75417;SDS011;63997;52.112;5.420;2023-07-31T02:26:58;13.05;;;3.25;;
75417;SDS011;63997;52.112;5.420;2023-07-31T02:29:24;10.80;;;3.35;;
75417;SDS011;63997;52.112;5.420;2023-07-31T02:31:50;15.98;;;3.65;;
75417;SDS011;63997;52.112;5.420;2023-07-31T02:34:17;12.60;;;2.90;;
75417;SDS011;63997;52.112;5.420;2023-07-31T02:36:43;10.43;;;2.65;;
75417;SDS011;63997;52.112;5.420;2023-07-31T02:39:10;16.70;;;3.70;;
75417;SDS011;63997;52.112;5.420;2023-07-31T02:41:36;13.02;;;3.28;;
75417;SDS011;63997;52.112;5.420;2023-07-31T02:44:02;13.68;;;3.53;;
75417;SDS011;63997;52.112;5.420;2023-07-31T02:46:29;12.13;;;4.30;;
75417;SDS011;63997;52.112;5.420;2023-07-31T02:48:55;14.25;;;3.97;;
75417;SDS011;63997;52.112;5.420;2023-07-31T02:51:22;18.42;;;4.15;;
75417;SDS011;63997;52.112;5.420;2023-07-31T02:53:48;12.73;;;3.58;;
75417;SDS011;63997;52.112;5.420;2023-07-31T02:56:15;14.32;;;3.70;;
75417;SDS011;63997;52.112;5.420;2023-07-31T02:58:42;14.40;;;3.80;;
75417;SDS011;63997;52.112;5.420;2023-07-31T03:01:08;21.15;;;5.07;;
75417;SDS011;63997;52.112;5.420;2023-07-31T03:03:35;15.80;;;4.13;;
75417;SDS011;63997;52.112;5.420;2023-07-31T03:06:01;10.20;;;4.50;;
75417;SDS011;63997;52.112;5.420;2023-07-31T03:08:28;12.40;;;3.42;;
75417;SDS011;63997;52.112;5.420;2023-07-31T03:10:54;11.00;;;4.40;;
75417;SDS011;63997;52.112;5.420;2023-07-31T03:13:22;18.42;;;4.35;;
75417;SDS011;63997;52.112;5.420;2023-07-31T03:15:49;16.83;;;4.50;;
75417;SDS011;63997;52.112;5.420;2023-07-31T03:18:16;18.60;;;4.47;;
75417;SDS011;63997;52.112;5.420;2023-07-31T03:20:43;22.67;;;4.75;;
75417;SDS011;63997;52.112;5.420;2023-07-31T03:23:14;19.87;;;4.67;;
75417;SDS011;63997;52.112;5.420;2023-07-31T03:25:41;17.92;;;4.65;;
75417;SDS011;63997;52.112;5.420;2023-07-31T03:28:21;17.90;;;4.97;;
75417;SDS011;63997;52.112;5.420;2023-07-31T03:30:48;17.02;;;3.95;;
75417;SDS011;63997;52.112;5.420;2023-07-31T03:33:14;16.25;;;4.68;;
75417;SDS011;63997;52.112;5.420;2023-07-31T03:35:40;14.20;;;4.80;;
75417;SDS011;63997;52.112;5.420;2023-07-31T03:38:07;20.35;;;5.68;;
75417;SDS011;63997;52.112;5.420;2023-07-31T03:40:36;14.73;;;4.40;;
75417;SDS011;63997;52.112;5.420;2023-07-31T03:43:03;16.55;;;4.75;;
75417;SDS011;63997;52.112;5.420;2023-07-31T03:45:29;12.65;;;4.53;;
75417;SDS011;63997;52.112;5.420;2023-07-31T03:47:55;14.77;;;4.63;;
75417;SDS011;63997;52.112;5.420;2023-07-31T03:50:22;17.65;;;4.60;;
75417;SDS011;63997;52.112;5.420;2023-07-31T03:52:49;19.08;;;4.88;;
75417;SDS011;63997;52.112;5.420;2023-07-31T03:55:15;16.75;;;4.68;;
75417;SDS011;63997;52.112;5.420;2023-07-31T03:57:41;17.33;;;4.90;;
75417;SDS011;63997;52.112;5.420;2023-07-31T04:00:08;17.23;;;5.57;;
75417;SDS011;63997;52.112;5.420;2023-07-31T04:02:35;13.90;;;4.97;;
75417;SDS011;63997;52.112;5.420;2023-07-31T04:05:01;14.50;;;4.70;;
75417;SDS011;63997;52.112;5.420;2023-07-31T04:07:28;22.98;;;4.78;;
75417;SDS011;63997;52.112;5.420;2023-07-31T04:09:55;13.77;;;4.57;;
75417;SDS011;63997;52.112;5.420;2023-07-31T04:12:21;17.10;;;5.07;;
75417;SDS011;63997;52.112;5.420;2023-07-31T04:14:47;38.20;;;6.25;;
75417;SDS011;63997;52.112;5.420;2023-07-31T04:17:14;18.85;;;5.38;;
75417;SDS011;63997;52.112;5.420;2023-07-31T04:19:40;15.98;;;5.15;;
75417;SDS011;63997;52.112;5.420;2023-07-31T04:22:07;18.45;;;4.90;;
75417;SDS011;63997;52.112;5.420;2023-07-31T04:24:33;13.97;;;4.57;;
75417;SDS011;63997;52.112;5.420;2023-07-31T04:26:59;18.85;;;5.00;;
75417;SDS011;63997;52.112;5.420;2023-07-31T04:29:26;14.30;;;4.82;;
75417;SDS011;63997;52.112;5.420;2023-07-31T04:31:52;17.00;;;4.70;;
75417;SDS011;63997;52.112;5.420;2023-07-31T04:34:19;17.05;;;5.55;;
75417;SDS011;63997;52.112;5.420;2023-07-31T04:36:45;16.20;;;4.20;;
75417;SDS011;63997;52.112;5.420;2023-07-31T04:39:11;14.73;;;4.30;;
75417;SDS011;63997;52.112;5.420;2023-07-31T04:41:38;17.30;;;5.20;;
75417;SDS011;63997;52.112;5.420;2023-07-31T04:44:04;14.27;;;4.18;;
75417;SDS011;63997;52.112;5.420;2023-07-31T04:46:31;15.02;;;4.65;;
75417;SDS011;63997;52.112;5.420;2023-07-31T04:48:57;11.87;;;4.50;;
75417;SDS011;63997;52.112;5.420;2023-07-31T04:51:24;14.15;;;4.57;;
75417;SDS011;63997;52.112;5.420;2023-07-31T04:53:51;19.40;;;4.45;;
75417;SDS011;63997;52.112;5.420;2023-07-31T04:56:17;13.98;;;4.75;;
75417;SDS011;63997;52.112;5.420;2023-07-31T04:58:44;12.73;;;4.63;;
75417;SDS011;63997;52.112;5.420;2023-07-31T05:01:10;14.33;;;5.10;;
75417;SDS011;63997;52.112;5.420;2023-07-31T05:03:36;11.55;;;4.43;;
75417;SDS011;63997;52.112;5.420;2023-07-31T05:06:03;14.00;;;4.90;;
75417;SDS011;63997;52.112;5.420;2023-07-31T05:08:29;10.25;;;4.68;;
75417;SDS011;63997;52.112;5.420;2023-07-31T05:10:56;9.93;;;4.47;;
75417;SDS011;63997;52.112;5.420;2023-07-31T05:13:22;13.53;;;4.63;;
75417;SDS011;63997;52.112;5.420;2023-07-31T05:15:48;14.55;;;4.97;;
75417;SDS011;63997;52.112;5.420;2023-07-31T05:18:15;15.98;;;4.85;;
75417;SDS011;63997;52.112;5.420;2023-07-31T05:20:42;13.35;;;4.80;;
75417;SDS011;63997;52.112;5.420;2023-07-31T05:23:08;15.10;;;4.18;;
75417;SDS011;63997;52.112;5.420;2023-07-31T05:25:35;12.57;;;4.13;;
75417;SDS011;63997;52.112;5.420;2023-07-31T05:28:02;13.43;;;3.75;;
75417;SDS011;63997;52.112;5.420;2023-07-31T05:30:31;12.32;;;3.83;;
75417;SDS011;63997;52.112;5.420;2023-07-31T05:32:58;9.35;;;3.17;;
75417;SDS011;63997;52.112;5.420;2023-07-31T05:35:24;7.78;;;2.95;;
75417;SDS011;63997;52.112;5.420;2023-07-31T05:37:51;6.93;;;2.63;;
75417;SDS011;63997;52.112;5.420;2023-07-31T05:40:17;10.00;;;3.00;;
75417;SDS011;63997;52.112;5.420;2023-07-31T05:42:43;6.50;;;2.70;;
75417;SDS011;63997;52.112;5.420;2023-07-31T05:45:10;8.60;;;2.75;;
75417;SDS011;63997;52.112;5.420;2023-07-31T05:47:36;4.82;;;2.40;;
75417;SDS011;63997;52.112;5.420;2023-07-31T05:50:03;4.07;;;1.97;;
75417;SDS011;63997;52.112;5.420;2023-07-31T05:52:30;5.53;;;2.22;;
75417;SDS011;63997;52.112;5.420;2023-07-31T05:54:56;7.57;;;2.75;;
75417;SDS011;63997;52.112;5.420;2023-07-31T05:57:22;5.75;;;2.22;;
75417;SDS011;63997;52.112;5.420;2023-07-31T05:59:53;6.38;;;3.13;;
75417;SDS011;63997;52.112;5.420;2023-07-31T06:02:19;9.37;;;3.07;;
75417;SDS011;63997;52.112;5.420;2023-07-31T06:04:46;9.68;;;3.10;;
75417;SDS011;63997;52.112;5.420;2023-07-31T06:07:13;10.50;;;3.42;;
75417;SDS011;63997;52.112;5.420;2023-07-31T06:09:40;8.90;;;3.65;;
75417;SDS011;63997;52.112;5.420;2023-07-31T06:12:06;9.02;;;3.45;;
75417;SDS011;63997;52.112;5.420;2023-07-31T06:14:33;5.13;;;2.83;;
75417;SDS011;63997;52.112;5.420;2023-07-31T06:16:59;6.95;;;3.08;;
75417;SDS011;63997;52.112;5.420;2023-07-31T06:19:26;9.60;;;3.17;;
75417;SDS011;63997;52.112;5.420;2023-07-31T06:21:53;10.15;;;3.00;;
75417;SDS011;63997;52.112;5.420;2023-07-31T06:24:19;5.68;;;2.47;;
75417;SDS011;63997;52.112;5.420;2023-07-31T06:26:46;7.00;;;2.60;;
75417;SDS011;63997;52.112;5.420;2023-07-31T06:29:13;6.22;;;2.72;;
75417;SDS011;63997;52.112;5.420;2023-07-31T06:31:41;6.53;;;2.75;;
75417;SDS011;63997;52.112;5.420;2023-07-31T06:34:08;8.27;;;2.47;;
75417;SDS011;63997;52.112;5.420;2023-07-31T06:36:36;7.43;;;2.65;;
75417;SDS011;63997;52.112;5.420;2023-07-31T06:39:03;5.97;;;2.67;;
75417;SDS011;63997;52.112;5.420;2023-07-31T06:41:30;5.00;;;2.13;;
75417;SDS011;63997;52.112;5.420;2023-07-31T06:43:56;4.75;;;1.85;;
75417;SDS011;63997;52.112;5.420;2023-07-31T06:46:22;5.82;;;2.10;;
75417;SDS011;63997;52.112;5.420;2023-07-31T06:48:49;4.68;;;2.08;;
75417;SDS011;63997;52.112;5.420;2023-07-31T06:51:15;5.63;;;2.30;;
75417;SDS011;63997;52.112;5.420;2023-07-31T06:53:42;4.72;;;1.95;;
75417;SDS011;63997;52.112;5.420;2023-07-31T06:56:11;5.03;;;2.65;;
75417;SDS011;63997;52.112;5.420;2023-07-31T06:58:38;3.67;;;1.98;;
75417;SDS011;63997;52.112;5.420;2023-07-31T07:01:07;5.32;;;1.92;;
75417;SDS011;63997;52.112;5.420;2023-07-31T07:03:34;6.07;;;1.77;;
75417;SDS011;63997;52.112;5.420;2023-07-31T07:06:00;5.00;;;2.22;;
75417;SDS011;63997;52.112;5.420;2023-07-31T07:08:27;5.50;;;2.22;;
75417;SDS011;63997;52.112;5.420;2023-07-31T07:10:53;6.72;;;2.20;;
75417;SDS011;63997;52.112;5.420;2023-07-31T07:13:20;6.32;;;2.38;;
75417;SDS011;63997;52.112;5.420;2023-07-31T07:15:48;3.93;;;1.87;;
75417;SDS011;63997;52.112;5.420;2023-07-31T07:18:15;3.53;;;2.38;;
75417;SDS011;63997;52.112;5.420;2023-07-31T07:20:51;2.65;;;1.90;;
75417;SDS011;63997;52.112;5.420;2023-07-31T07:23:18;4.32;;;2.60;;
75417;SDS011;63997;52.112;5.420;2023-07-31T07:25:45;6.97;;;2.33;;
75417;SDS011;63997;52.112;5.420;2023-07-31T07:28:12;4.93;;;2.30;;
75417;SDS011;63997;52.112;5.420;2023-07-31T07:30:40;5.88;;;1.98;;
75417;SDS011;63997;52.112;5.420;2023-07-31T07:33:09;3.10;;;2.10;;
75417;SDS011;63997;52.112;5.420;2023-07-31T07:35:35;3.17;;;2.15;;
75417;SDS011;63997;52.112;5.420;2023-07-31T07:38:02;3.80;;;2.17;;
75417;SDS011;63997;52.112;5.420;2023-07-31T07:40:29;4.73;;;2.13;;
75417;SDS011;63997;52.112;5.420;2023-07-31T07:42:55;2.83;;;2.15;;
75417;SDS011;63997;52.112;5.420;2023-07-31T07:45:22;4.60;;;2.28;;
75417;SDS011;63997;52.112;5.420;2023-07-31T07:47:48;4.55;;;2.58;;
75417;SDS011;63997;52.112;5.420;2023-07-31T07:50:14;5.07;;;2.30;;
75417;SDS011;63997;52.112;5.420;2023-07-31T07:52:41;4.20;;;2.20;;
75417;SDS011;63997;52.112;5.420;2023-07-31T07:55:07;2.40;;;1.95;;
75417;SDS011;63997;52.112;5.420;2023-07-31T07:57:34;3.40;;;2.03;;
75417;SDS011;63997;52.112;5.420;2023-07-31T08:00:00;4.53;;;1.90;;
75417;SDS011;63997;52.112;5.420;2023-07-31T08:02:27;4.50;;;1.55;;
75417;SDS011;63997;52.112;5.420;2023-07-31T08:04:53;5.07;;;2.00;;
75417;SDS011;63997;52.112;5.420;2023-07-31T08:07:19;5.05;;;2.10;;
75417;SDS011;63997;52.112;5.420;2023-07-31T08:09:52;4.75;;;2.50;;
75417;SDS011;63997;52.112;5.420;2023-07-31T08:12:22;3.15;;;1.70;;
75417;SDS011;63997;52.112;5.420;2023-07-31T08:14:49;4.07;;;1.52;;
75417;SDS011;63997;52.112;5.420;2023-07-31T08:17:15;2.53;;;1.40;;
75417;SDS011;63997;52.112;5.420;2023-07-31T08:19:42;3.92;;;1.15;;
75417;SDS011;63997;52.112;5.420;2023-07-31T08:22:08;1.92;;;1.10;;
75417;SDS011;63997;52.112;5.420;2023-07-31T08:24:35;2.42;;;1.08;;
75417;SDS011;63997;52.112;5.420;2023-07-31T08:27:01;2.03;;;1.38;;
75417;SDS011;63997;52.112;5.420;2023-07-31T08:29:28;2.57;;;1.27;;
75417;SDS011;63997;52.112;5.420;2023-07-31T08:31:54;1.42;;;0.95;;
75417;SDS011;63997;52.112;5.420;2023-07-31T08:34:21;1.95;;;1.25;;
75417;SDS011;63997;52.112;5.420;2023-07-31T08:36:51;3.60;;;1.38;;
75417;SDS011;63997;52.112;5.420;2023-07-31T08:39:17;2.45;;;1.23;;
75417;SDS011;63997;52.112;5.420;2023-07-31T08:41:44;2.57;;;1.00;;
75417;SDS011;63997;52.112;5.420;2023-07-31T08:44:10;1.83;;;0.90;;
75417;SDS011;63997;52.112;5.420;2023-07-31T08:46:38;2.13;;;0.90;;
75417;SDS011;63997;52.112;5.420;2023-07-31T08:49:06;1.80;;;1.17;;
75417;SDS011;63997;52.112;5.420;2023-07-31T08:51:38;1.52;;;1.00;;
75417;SDS011;63997;52.112;5.420;2023-07-31T08:54:07;1.30;;;0.60;;
75417;SDS011;63997;52.112;5.420;2023-07-31T08:56:33;1.80;;;0.98;;
75417;SDS011;63997;52.112;5.420;2023-07-31T08:59:01;2.35;;;0.90;;
75417;SDS011;63997;52.112;5.420;2023-07-31T09:01:33;1.30;;;0.90;;
75417;SDS011;63997;52.112;5.420;2023-07-31T09:04:06;2.15;;;0.65;;
75417;SDS011;63997;52.112;5.420;2023-07-31T09:06:35;2.93;;;0.80;;
75417;SDS011;63997;52.112;5.420;2023-07-31T09:09:03;1.52;;;1.00;;
75417;SDS011;63997;52.112;5.420;2023-07-31T09:11:29;1.83;;;0.82;;
75417;SDS011;63997;52.112;5.420;2023-07-31T09:13:57;1.42;;;1.17;;
75417;SDS011;63997;52.112;5.420;2023-07-31T09:16:29;1.50;;;1.23;;
75417;SDS011;63997;52.112;5.420;2023-07-31T09:18:58;2.80;;;1.47;;
75417;SDS011;63997;52.112;5.420;2023-07-31T09:21:27;1.75;;;1.00;;
75417;SDS011;63997;52.112;5.420;2023-07-31T09:23:54;1.63;;;1.10;;
75417;SDS011;63997;52.112;5.420;2023-07-31T09:26:33;2.60;;;1.27;;
75417;SDS011;63997;52.112;5.420;2023-07-31T09:29:03;2.17;;;1.40;;
75417;SDS011;63997;52.112;5.420;2023-07-31T09:31:32;3.80;;;1.20;;
75417;SDS011;63997;52.112;5.420;2023-07-31T09:34:09;1.90;;;1.23;;
75417;SDS011;63997;52.112;5.420;2023-07-31T09:36:41;1.98;;;1.52;;
75417;SDS011;63997;52.112;5.420;2023-07-31T09:39:11;2.28;;;1.70;;
75417;SDS011;63997;52.112;5.420;2023-07-31T09:41:40;2.28;;;1.48;;
75417;SDS011;63997;52.112;5.420;2023-07-31T09:44:09;2.50;;;1.83;;
75417;SDS011;63997;52.112;5.420;2023-07-31T09:46:36;2.42;;;1.75;;
75417;SDS011;63997;52.112;5.420;2023-07-31T09:49:05;2.50;;;1.80;;
75417;SDS011;63997;52.112;5.420;2023-07-31T09:51:36;2.25;;;1.40;;
75417;SDS011;63997;52.112;5.420;2023-07-31T09:54:13;2.28;;;1.55;;
75417;SDS011;63997;52.112;5.420;2023-07-31T09:56:42;2.00;;;1.20;;
75417;SDS011;63997;52.112;5.420;2023-07-31T09:59:10;2.67;;;1.52;;
75417;SDS011;63997;52.112;5.420;2023-07-31T10:01:38;2.55;;;1.10;;
75417;SDS011;63997;52.112;5.420;2023-07-31T10:04:07;2.05;;;1.25;;
75417;SDS011;63997;52.112;5.420;2023-07-31T10:06:35;2.95;;;1.40;;
75417;SDS011;63997;52.112;5.420;2023-07-31T10:09:05;2.77;;;1.47;;
75417;SDS011;63997;52.112;5.420;2023-07-31T10:11:38;2.30;;;1.27;;
75417;SDS011;63997;52.112;5.420;2023-07-31T10:14:10;2.13;;;1.92;;
75417;SDS011;63997;52.112;5.420;2023-07-31T10:16:38;3.50;;;2.05;;
75417;SDS011;63997;52.112;5.420;2023-07-31T10:19:06;4.72;;;1.95;;
75417;SDS011;63997;52.112;5.420;2023-07-31T10:21:34;3.27;;;2.00;;
75417;SDS011;63997;52.112;5.420;2023-07-31T10:24:03;4.32;;;2.72;;
75417;SDS011;63997;52.112;5.420;2023-07-31T10:26:33;4.97;;;2.10;;
75417;SDS011;63997;52.112;5.420;2023-07-31T10:29:01;5.63;;;2.40;;
75417;SDS011;63997;52.112;5.420;2023-07-31T10:31:28;3.47;;;2.45;;
75417;SDS011;63997;52.112;5.420;2023-07-31T10:33:55;4.40;;;2.50;;
75417;SDS011;63997;52.112;5.420;2023-07-31T10:36:25;5.35;;;3.00;;
75417;SDS011;63997;52.112;5.420;2023-07-31T10:38:51;5.70;;;2.53;;
75417;SDS011;63997;52.112;5.420;2023-07-31T10:41:18;3.88;;;2.67;;
75417;SDS011;63997;52.112;5.420;2023-07-31T10:43:48;8.73;;;3.00;;
75417;SDS011;63997;52.112;5.420;2023-07-31T10:46:14;5.60;;;3.13;;
75417;SDS011;63997;52.112;5.420;2023-07-31T10:48:41;4.15;;;2.50;;
75417;SDS011;63997;52.112;5.420;2023-07-31T10:51:08;4.20;;;2.80;;
75417;SDS011;63997;52.112;5.420;2023-07-31T10:53:39;3.95;;;2.35;;
75417;SDS011;63997;52.112;5.420;2023-07-31T10:56:09;3.47;;;2.50;;
75417;SDS011;63997;52.112;5.420;2023-07-31T10:58:39;3.23;;;2.20;;
75417;SDS011;63997;52.112;5.420;2023-07-31T11:01:06;3.60;;;2.60;;
75417;SDS011;63997;52.112;5.420;2023-07-31T11:06:13;3.22;;;2.20;;
75417;SDS011;63997;52.112;5.420;2023-07-31T11:08:47;4.65;;;1.92;;
75417;SDS011;63997;52.112;5.420;2023-07-31T11:11:15;4.73;;;1.77;;
75417;SDS011;63997;52.112;5.420;2023-07-31T11:13:44;2.63;;;1.63;;
75417;SDS011;63997;52.112;5.420;2023-07-31T11:16:16;2.03;;;1.77;;
75417;SDS011;63997;52.112;5.420;2023-07-31T11:18:44;3.03;;;1.20;;
75417;SDS011;63997;52.112;5.420;2023-07-31T11:21:15;3.25;;;1.40;;
75417;SDS011;63997;52.112;5.420;2023-07-31T11:23:47;4.83;;;1.17;;
75417;SDS011;63997;52.112;5.420;2023-07-31T11:26:14;1.50;;;1.20;;
75417;SDS011;63997;52.112;5.420;2023-07-31T11:28:42;2.05;;;1.27;;
75417;SDS011;63997;52.112;5.420;2023-07-31T11:31:09;0.88;;;0.80;;
75417;SDS011;63997;52.112;5.420;2023-07-31T11:33:37;1.80;;;0.80;;
75417;SDS011;63997;52.112;5.420;2023-07-31T11:36:03;2.17;;;0.90;;
75417;SDS011;63997;52.112;5.420;2023-07-31T11:38:31;4.45;;;1.30;;
75417;SDS011;63997;52.112;5.420;2023-07-31T11:41:00;1.27;;;1.02;;
75417;SDS011;63997;52.112;5.420;2023-07-31T11:43:31;2.45;;;1.42;;
75417;SDS011;63997;52.112;5.420;2023-07-31T11:45:58;1.85;;;1.45;;
75417;SDS011;63997;52.112;5.420;2023-07-31T11:48:29;1.83;;;1.30;;
75417;SDS011;63997;52.112;5.420;2023-07-31T11:51:03;2.72;;;1.63;;
75417;SDS011;63997;52.112;5.420;2023-07-31T11:56:37;3.13;;;1.70;;
75417;SDS011;63997;52.112;5.420;2023-07-31T11:59:04;2.50;;;1.85;;
75417;SDS011;63997;52.112;5.420;2023-07-31T12:01:34;5.10;;;2.50;;
75417;SDS011;63997;52.112;5.420;2023-07-31T12:04:01;3.15;;;2.30;;
75417;SDS011;63997;52.112;5.420;2023-07-31T12:06:34;3.05;;;1.98;;
75417;SDS011;63997;52.112;5.420;2023-07-31T12:09:02;7.68;;;2.67;;
75417;SDS011;63997;52.112;5.420;2023-07-31T12:11:29;2.50;;;1.95;;
75417;SDS011;63997;52.112;5.420;2023-07-31T12:13:56;3.67;;;2.40;;
75417;SDS011;63997;52.112;5.420;2023-07-31T12:16:25;2.88;;;2.53;;
75417;SDS011;63997;52.112;5.420;2023-07-31T12:18:52;2.55;;;2.17;;
75417;SDS011;63997;52.112;5.420;2023-07-31T12:21:19;2.90;;;2.00;;
75417;SDS011;63997;52.112;5.420;2023-07-31T12:23:46;3.35;;;1.60;;
75417;SDS011;63997;52.112;5.420;2023-07-31T12:26:13;2.67;;;1.70;;
75417;SDS011;63997;52.112;5.420;2023-07-31T12:28:47;3.53;;;1.70;;
75417;SDS011;63997;52.112;5.420;2023-07-31T12:31:16;2.00;;;1.70;;
75417;SDS011;63997;52.112;5.420;2023-07-31T12:33:44;2.30;;;1.63;;
75417;SDS011;63997;52.112;5.420;2023-07-31T12:36:13;1.65;;;1.45;;
75417;SDS011;63997;52.112;5.420;2023-07-31T12:38:41;1.80;;;1.40;;
75417;SDS011;63997;52.112;5.420;2023-07-31T12:41:08;1.85;;;1.40;;
75417;SDS011;63997;52.112;5.420;2023-07-31T12:43:35;1.90;;;1.70;;
75417;SDS011;63997;52.112;5.420;2023-07-31T12:46:06;2.45;;;1.90;;
75417;SDS011;63997;52.112;5.420;2023-07-31T12:48:34;2.20;;;2.00;;
75417;SDS011;63997;52.112;5.420;2023-07-31T12:51:03;2.23;;;1.87;;
75417;SDS011;63997;52.112;5.420;2023-07-31T12:53:30;2.40;;;1.88;;
75417;SDS011;63997;52.112;5.420;2023-07-31T12:55:56;2.92;;;2.00;;
75417;SDS011;63997;52.112;5.420;2023-07-31T12:58:23;4.30;;;2.28;;
75417;SDS011;63997;52.112;5.420;2023-07-31T13:00:50;2.92;;;2.35;;
75417;SDS011;63997;52.112;5.420;2023-07-31T13:03:16;5.10;;;1.77;;
75417;SDS011;63997;52.112;5.420;2023-07-31T13:05:43;2.63;;;2.08;;
75417;SDS011;63997;52.112;5.420;2023-07-31T13:08:09;2.92;;;2.40;;
75417;SDS011;63997;52.112;5.420;2023-07-31T13:10:35;2.70;;;2.30;;
75417;SDS011;63997;52.112;5.420;2023-07-31T13:13:02;3.30;;;1.95;;
75417;SDS011;63997;52.112;5.420;2023-07-31T13:15:28;2.53;;;2.23;;
75417;SDS011;63997;52.112;5.420;2023-07-31T13:17:55;2.80;;;2.38;;
75417;SDS011;63997;52.112;5.420;2023-07-31T13:20:22;2.90;;;2.60;;
75417;SDS011;63997;52.112;5.420;2023-07-31T13:22:48;3.30;;;2.10;;
75417;SDS011;63997;52.112;5.420;2023-07-31T13:25:14;2.72;;;2.00;;
75417;SDS011;63997;52.112;5.420;2023-07-31T13:27:41;2.57;;;2.37;;
75417;SDS011;63997;52.112;5.420;2023-07-31T13:30:07;2.13;;;1.77;;
75417;SDS011;63997;52.112;5.420;2023-07-31T13:32:34;4.00;;;2.25;;
75417;SDS011;63997;52.112;5.420;2023-07-31T13:35:05;2.50;;;1.98;;
75417;SDS011;63997;52.112;5.420;2023-07-31T13:37:32;1.45;;;1.27;;
75417;SDS011;63997;52.112;5.420;2023-07-31T13:39:59;2.73;;;1.63;;
75417;SDS011;63997;52.112;5.420;2023-07-31T13:42:27;2.83;;;1.58;;
75417;SDS011;63997;52.112;5.420;2023-07-31T13:44:56;1.58;;;1.38;;
75417;SDS011;63997;52.112;5.420;2023-07-31T13:47:33;1.58;;;1.30;;
75417;SDS011;63997;52.112;5.420;2023-07-31T13:50:03;1.73;;;1.13;;
75417;SDS011;63997;52.112;5.420;2023-07-31T13:52:30;5.53;;;1.60;;
75417;SDS011;63997;52.112;5.420;2023-07-31T13:54:56;3.60;;;1.70;;
75417;SDS011;63997;52.112;5.420;2023-07-31T13:57:22;3.67;;;2.15;;
75417;SDS011;63997;52.112;5.420;2023-07-31T13:59:49;3.45;;;1.70;;
75417;SDS011;63997;52.112;5.420;2023-07-31T14:02:16;2.88;;;1.98;;
75417;SDS011;63997;52.112;5.420;2023-07-31T14:04:42;4.33;;;1.50;;
75417;SDS011;63997;52.112;5.420;2023-07-31T14:07:09;1.45;;;1.08;;
75417;SDS011;63997;52.112;5.420;2023-07-31T14:09:40;1.92;;;1.20;;
75417;SDS011;63997;52.112;5.420;2023-07-31T14:12:07;2.15;;;1.58;;
75417;SDS011;63997;52.112;5.420;2023-07-31T14:14:33;3.60;;;1.73;;
75417;SDS011;63997;52.112;5.420;2023-07-31T14:17:00;3.73;;;2.23;;
75417;SDS011;63997;52.112;5.420;2023-07-31T14:19:27;3.40;;;3.10;;
75417;SDS011;63997;52.112;5.420;2023-07-31T14:21:54;4.50;;;4.10;;
75417;SDS011;63997;52.112;5.420;2023-07-31T14:24:35;4.40;;;4.03;;
75417;SDS011;63997;52.112;5.420;2023-07-31T14:27:02;4.13;;;3.80;;
75417;SDS011;63997;52.112;5.420;2023-07-31T14:29:29;4.80;;;4.20;;
75417;SDS011;63997;52.112;5.420;2023-07-31T14:31:56;6.55;;;5.03;;
75417;SDS011;63997;52.112;5.420;2023-07-31T14:34:22;5.30;;;4.63;;
75417;SDS011;63997;52.112;5.420;2023-07-31T14:36:48;5.60;;;4.40;;
75417;SDS011;63997;52.112;5.420;2023-07-31T14:39:15;7.07;;;5.45;;
75417;SDS011;63997;52.112;5.420;2023-07-31T14:41:41;5.23;;;4.33;;
75417;SDS011;63997;52.112;5.420;2023-07-31T14:44:08;5.40;;;4.90;;
75417;SDS011;63997;52.112;5.420;2023-07-31T14:46:34;5.95;;;4.50;;
75417;SDS011;63997;52.112;5.420;2023-07-31T14:49:01;4.55;;;4.07;;
75417;SDS011;63997;52.112;5.420;2023-07-31T14:51:27;4.75;;;4.25;;
75417;SDS011;63997;52.112;5.420;2023-07-31T14:53:53;4.37;;;3.97;;
75417;SDS011;63997;52.112;5.420;2023-07-31T14:56:20;7.35;;;4.40;;